MMPN/UPN METAR and TAF weather

Enter ICAO airport designator
Station Type Date Time Source
MMPN METAR 2018/12/10 00:46 UTC NOAA

MMPN 100046Z 00000KT 8SM OVC270 20/16 A3021 RMK 8/001 HZY SC


Station Type Date Time Source
MMPN Decoded METAR 2018/12/10 00:46 UTC NOAA

Uruapan / Gen Rayon, Mexico (MMPN) 19-24N 102-02W
Dec 09, 2018 - 07:46 PM EST / 2018.12.10 0046 UTC
Wind: Calm:0
Visibility: 8 mile(s):0
Sky conditions: overcast
Temperature: 68 F (20 C)
Dew Point: 60 F (16 C)
Relative Humidity: 77%
Pressure (altimeter): 30.21 in. Hg (1023 hPa)
ob: MMPN 100046Z 00000KT 8SM OVC270 20/16 A3021 RMK 8/001 HZY SC
cycle: 1

Station Type Date Time Source
MMPN TAF 2018/12/09 18:46 UTC NOAA

TAF MMPN 091639Z 0918/1018 18005KT P6SM SCT030 SCT300
BECMG 0920/0921 18010KT BKN030CB
FM100100 00000KT P6SM SCT090 SCT300
FM101200 03005KT 6SM HZ SCT020


Example: see airport list